sensor_id;sensor_type;location;lat;lon;timestamp;temperature;humidity
14053;DHT22;7101;51.600;7.310;2023-06-14T00:01:29;17.70;99.90
14053;DHT22;7101;51.600;7.310;2023-06-14T00:03:57;17.60;99.90
14053;DHT22;7101;51.600;7.310;2023-06-14T00:06:24;17.60;99.90
14053;DHT22;7101;51.600;7.310;2023-06-14T00:08:53;17.40;99.90
14053;DHT22;7101;51.600;7.310;2023-06-14T00:11:20;17.50;99.90
14053;DHT22;7101;51.600;7.310;2023-06-14T00:13:50;17.40;99.90
14053;DHT22;7101;51.600;7.310;2023-06-14T00:16:17;17.30;99.90
14053;DHT22;7101;51.600;7.310;2023-06-14T00:18:45;17.20;99.90
14053;DHT22;7101;51.600;7.310;2023-06-14T00:21:11;17.30;99.90
14053;DHT22;7101;51.600;7.310;2023-06-14T00:23:38;17.20;99.90
14053;DHT22;7101;51.600;7.310;2023-06-14T00:26:07;17.20;99.90
14053;DHT22;7101;51.600;7.310;2023-06-14T00:28:34;17.00;99.90
14053;DHT22;7101;51.600;7.310;2023-06-14T00:31:03;17.00;99.90
14053;DHT22;7101;51.600;7.310;2023-06-14T00:33:30;17.10;99.90
14053;DHT22;7101;51.600;7.310;2023-06-14T00:35:57;17.10;99.90
14053;DHT22;7101;51.600;7.310;2023-06-14T00:38:24;17.00;99.90
14053;DHT22;7101;51.600;7.310;2023-06-14T00:40:51;16.90;99.90
14053;DHT22;7101;51.600;7.310;2023-06-14T00:43:19;17.00;99.90
14053;DHT22;7101;51.600;7.310;2023-06-14T00:45:46;17.00;99.90
14053;DHT22;7101;51.600;7.310;2023-06-14T00:48:17;17.00;99.90
14053;DHT22;7101;51.600;7.310;2023-06-14T00:50:45;17.00;99.90
14053;DHT22;7101;51.600;7.310;2023-06-14T00:53:14;17.00;99.90
14053;DHT22;7101;51.600;7.310;2023-06-14T00:55:46;16.90;99.90
14053;DHT22;7101;51.600;7.310;2023-06-14T00:58:13;16.80;99.90
14053;DHT22;7101;51.600;7.310;2023-06-14T01:00:42;16.60;99.90
14053;DHT22;7101;51.600;7.310;2023-06-14T01:03:10;16.60;99.90
14053;DHT22;7101;51.600;7.310;2023-06-14T01:05:38;16.60;99.90
14053;DHT22;7101;51.600;7.310;2023-06-14T01:08:18;16.50;99.90
14053;DHT22;7101;51.600;7.310;2023-06-14T01:10:53;16.40;99.90
14053;DHT22;7101;51.600;7.310;2023-06-14T01:13:27;16.30;99.90
14053;DHT22;7101;51.600;7.310;2023-06-14T01:15:56;16.30;99.90
14053;DHT22;7101;51.600;7.310;2023-06-14T01:18:23;16.20;99.90
14053;DHT22;7101;51.600;7.310;2023-06-14T01:20:51;16.10;99.90
14053;DHT22;7101;51.600;7.310;2023-06-14T01:23:24;16.10;99.90
14053;DHT22;7101;51.600;7.310;2023-06-14T01:25:59;16.00;99.90
14053;DHT22;7101;51.600;7.310;2023-06-14T01:28:29;15.90;99.90
14053;DHT22;7101;51.600;7.310;2023-06-14T01:31:01;15.70;99.90
14053;DHT22;7101;51.600;7.310;2023-06-14T01:33:31;15.60;99.90
14053;DHT22;7101;51.600;7.310;2023-06-14T01:35:59;15.40;99.90
14053;DHT22;7101;51.600;7.310;2023-06-14T01:38:30;15.30;99.90
14053;DHT22;7101;51.600;7.310;2023-06-14T01:41:02;15.10;99.90
14053;DHT22;7101;51.600;7.310;2023-06-14T01:43:31;15.00;99.90
14053;DHT22;7101;51.600;7.310;2023-06-14T01:45:58;14.90;99.90
14053;DHT22;7101;51.600;7.310;2023-06-14T01:48:26;14.70;99.90
14053;DHT22;7101;51.600;7.310;2023-06-14T01:50:54;14.70;99.90
14053;DHT22;7101;51.600;7.310;2023-06-14T01:53:22;14.60;99.90
14053;DHT22;7101;51.600;7.310;2023-06-14T01:55:53;14.60;99.90
14053;DHT22;7101;51.600;7.310;2023-06-14T01:58:20;14.50;99.90
14053;DHT22;7101;51.600;7.310;2023-06-14T02:00:47;14.50;99.90
14053;DHT22;7101;51.600;7.310;2023-06-14T02:03:14;14.50;99.90
14053;DHT22;7101;51.600;7.310;2023-06-14T02:05:42;14.50;99.90
14053;DHT22;7101;51.600;7.310;2023-06-14T02:08:09;14.50;99.90
14053;DHT22;7101;51.600;7.310;2023-06-14T02:10:36;14.50;99.90
14053;DHT22;7101;51.600;7.310;2023-06-14T02:13:05;14.50;99.90
14053;DHT22;7101;51.600;7.310;2023-06-14T02:15:31;14.40;99.90
14053;DHT22;7101;51.600;7.310;2023-06-14T02:18:01;14.50;99.90
14053;DHT22;7101;51.600;7.310;2023-06-14T02:20:29;14.40;99.90
14053;DHT22;7101;51.600;7.310;2023-06-14T02:22:58;14.30;99.90
14053;DHT22;7101;51.600;7.310;2023-06-14T02:25:25;14.40;99.90
14053;DHT22;7101;51.600;7.310;2023-06-14T02:27:55;14.40;99.90
14053;DHT22;7101;51.600;7.310;2023-06-14T02:30:23;14.30;99.90
14053;DHT22;7101;51.600;7.310;2023-06-14T02:32:50;14.40;99.90
14053;DHT22;7101;51.600;7.310;2023-06-14T02:35:19;14.30;99.90
14053;DHT22;7101;51.600;7.310;2023-06-14T02:37:47;14.40;99.90
14053;DHT22;7101;51.600;7.310;2023-06-14T02:40:18;14.30;99.90
14053;DHT22;7101;51.600;7.310;2023-06-14T02:42:45;14.20;99.90
14053;DHT22;7101;51.600;7.310;2023-06-14T02:45:13;14.30;99.90
14053;DHT22;7101;51.600;7.310;2023-06-14T02:47:45;14.20;99.90
14053;DHT22;7101;51.600;7.310;2023-06-14T02:50:14;14.20;99.90
14053;DHT22;7101;51.600;7.310;2023-06-14T02:52:41;14.00;99.90
14053;DHT22;7101;51.600;7.310;2023-06-14T02:55:12;13.90;99.90
14053;DHT22;7101;51.600;7.310;2023-06-14T02:57:39;13.90;99.90
14053;DHT22;7101;51.600;7.310;2023-06-14T03:00:07;13.90;99.90
14053;DHT22;7101;51.600;7.310;2023-06-14T03:02:37;13.90;99.90
14053;DHT22;7101;51.600;7.310;2023-06-14T03:05:06;13.90;99.90
14053;DHT22;7101;51.600;7.310;2023-06-14T03:07:34;13.90;99.90
14053;DHT22;7101;51.600;7.310;2023-06-14T03:10:00;13.90;99.90
14053;DHT22;7101;51.600;7.310;2023-06-14T03:12:29;13.70;99.90
14053;DHT22;7101;51.600;7.310;2023-06-14T03:14:56;13.70;99.90
14053;DHT22;7101;51.600;7.310;2023-06-14T03:17:28;13.70;99.90
14053;DHT22;7101;51.600;7.310;2023-06-14T03:19:59;13.80;99.90
14053;DHT22;7101;51.600;7.310;2023-06-14T03:22:28;13.80;99.90
14053;DHT22;7101;51.600;7.310;2023-06-14T03:24:55;14.10;99.90
14053;DHT22;7101;51.600;7.310;2023-06-14T03:27:23;14.30;99.90
14053;DHT22;7101;51.600;7.310;2023-06-14T03:29:52;14.20;99.90
14053;DHT22;7101;51.600;7.310;2023-06-14T03:32:18;14.30;99.90
14053;DHT22;7101;51.600;7.310;2023-06-14T03:34:45;14.30;99.90
14053;DHT22;7101;51.600;7.310;2023-06-14T03:37:12;14.30;99.90
14053;DHT22;7101;51.600;7.310;2023-06-14T03:39:40;14.40;99.90
14053;DHT22;7101;51.600;7.310;2023-06-14T03:42:12;14.40;99.90
14053;DHT22;7101;51.600;7.310;2023-06-14T03:44:40;14.50;99.90
14053;DHT22;7101;51.600;7.310;2023-06-14T03:47:07;14.60;99.90
14053;DHT22;7101;51.600;7.310;2023-06-14T03:49:35;14.60;99.90
14053;DHT22;7101;51.600;7.310;2023-06-14T03:52:04;14.70;99.90
14053;DHT22;7101;51.600;7.310;2023-06-14T03:54:30;14.80;99.90
14053;DHT22;7101;51.600;7.310;2023-06-14T03:56:59;14.80;99.90
14053;DHT22;7101;51.600;7.310;2023-06-14T03:59:26;14.90;99.90
14053;DHT22;7101;51.600;7.310;2023-06-14T04:01:55;15.10;99.90
14053;DHT22;7101;51.600;7.310;2023-06-14T04:04:22;15.40;99.90
14053;DHT22;7101;51.600;7.310;2023-06-14T04:06:54;16.50;99.90
14053;DHT22;7101;51.600;7.310;2023-06-14T04:09:23;17.60;99.90
14053;DHT22;7101;51.600;7.310;2023-06-14T04:11:52;18.70;99.90
14053;DHT22;7101;51.600;7.310;2023-06-14T04:14:20;19.60;99.90
14053;DHT22;7101;51.600;7.310;2023-06-14T04:16:48;20.00;99.90
14053;DHT22;7101;51.600;7.310;2023-06-14T04:19:15;20.80;99.90
14053;DHT22;7101;51.600;7.310;2023-06-14T04:21:43;21.40;99.90
14053;DHT22;7101;51.600;7.310;2023-06-14T04:24:10;21.90;98.10
14053;DHT22;7101;51.600;7.310;2023-06-14T04:26:39;22.50;94.80
14053;DHT22;7101;51.600;7.310;2023-06-14T04:29:06;22.70;93.10
14053;DHT22;7101;51.600;7.310;2023-06-14T04:31:34;23.00;90.30
14053;DHT22;7101;51.600;7.310;2023-06-14T04:34:04;22.80;90.10
14053;DHT22;7101;51.600;7.310;2023-06-14T04:36:32;23.00;85.60
14053;DHT22;7101;51.600;7.310;2023-06-14T04:39:00;23.20;82.80
14053;DHT22;7101;51.600;7.310;2023-06-14T04:41:29;23.40;83.10
14053;DHT22;7101;51.600;7.310;2023-06-14T04:43:58;23.50;82.10
14053;DHT22;7101;51.600;7.310;2023-06-14T04:46:28;23.60;80.80
14053;DHT22;7101;51.600;7.310;2023-06-14T04:48:57;23.80;78.50
14053;DHT22;7101;51.600;7.310;2023-06-14T04:51:30;24.40;75.20
14053;DHT22;7101;51.600;7.310;2023-06-14T04:53:59;24.40;75.50
14053;DHT22;7101;51.600;7.310;2023-06-14T04:56:26;24.60;73.40
14053;DHT22;7101;51.600;7.310;2023-06-14T04:58:54;23.80;73.50
14053;DHT22;7101;51.600;7.310;2023-06-14T05:01:22;23.70;76.10
14053;DHT22;7101;51.600;7.310;2023-06-14T05:03:50;24.00;74.00
14053;DHT22;7101;51.600;7.310;2023-06-14T05:06:20;24.20;72.70
14053;DHT22;7101;51.600;7.310;2023-06-14T05:08:48;24.10;71.10
14053;DHT22;7101;51.600;7.310;2023-06-14T05:11:15;23.90;72.60
14053;DHT22;7101;51.600;7.310;2023-06-14T05:13:42;24.40;70.50
14053;DHT22;7101;51.600;7.310;2023-06-14T05:16:10;24.40;70.20
14053;DHT22;7101;51.600;7.310;2023-06-14T05:18:39;24.40;70.40
14053;DHT22;7101;51.600;7.310;2023-06-14T05:21:08;24.20;69.70
14053;DHT22;7101;51.600;7.310;2023-06-14T05:23:36;24.50;70.60
14053;DHT22;7101;51.600;7.310;2023-06-14T05:26:04;24.50;67.80
14053;DHT22;7101;51.600;7.310;2023-06-14T05:28:32;24.90;67.20
14053;DHT22;7101;51.600;7.310;2023-06-14T05:30:59;25.10;67.80
14053;DHT22;7101;51.600;7.310;2023-06-14T05:33:25;25.10;66.30
14053;DHT22;7101;51.600;7.310;2023-06-14T05:35:54;24.90;66.70
14053;DHT22;7101;51.600;7.310;2023-06-14T05:38:21;24.60;66.30
14053;DHT22;7101;51.600;7.310;2023-06-14T05:40:49;24.40;67.20
14053;DHT22;7101;51.600;7.310;2023-06-14T05:43:17;24.30;67.60
14053;DHT22;7101;51.600;7.310;2023-06-14T05:45:44;23.80;68.30
14053;DHT22;7101;51.600;7.310;2023-06-14T05:48:11;23.80;67.80
14053;DHT22;7101;51.600;7.310;2023-06-14T05:50:37;24.30;67.20
14053;DHT22;7101;51.600;7.310;2023-06-14T05:53:04;24.90;66.90
14053;DHT22;7101;51.600;7.310;2023-06-14T05:55:31;25.20;65.60
14053;DHT22;7101;51.600;7.310;2023-06-14T05:57:59;25.70;64.30
14053;DHT22;7101;51.600;7.310;2023-06-14T06:00:26;26.10;63.80
14053;DHT22;7101;51.600;7.310;2023-06-14T06:02:53;26.20;63.40
14053;DHT22;7101;51.600;7.310;2023-06-14T06:05:22;26.40;63.70
14053;DHT22;7101;51.600;7.310;2023-06-14T06:07:49;26.30;62.90
14053;DHT22;7101;51.600;7.310;2023-06-14T06:10:16;25.90;63.30
14053;DHT22;7101;51.600;7.310;2023-06-14T06:12:53;25.80;62.50
14053;DHT22;7101;51.600;7.310;2023-06-14T06:15:21;26.20;61.90
14053;DHT22;7101;51.600;7.310;2023-06-14T06:17:48;26.30;63.20
14053;DHT22;7101;51.600;7.310;2023-06-14T06:20:18;26.50;60.30
14053;DHT22;7101;51.600;7.310;2023-06-14T06:22:45;26.40;60.80
14053;DHT22;7101;51.600;7.310;2023-06-14T06:25:12;26.00;61.30
14053;DHT22;7101;51.600;7.310;2023-06-14T06:27:41;26.20;60.40
14053;DHT22;7101;51.600;7.310;2023-06-14T06:30:09;26.00;60.70
14053;DHT22;7101;51.600;7.310;2023-06-14T06:32:37;25.70;61.60
14053;DHT22;7101;51.600;7.310;2023-06-14T06:35:07;25.70;61.20
14053;DHT22;7101;51.600;7.310;2023-06-14T06:37:36;25.40;61.70
14053;DHT22;7101;51.600;7.310;2023-06-14T06:40:03;25.10;62.90
14053;DHT22;7101;51.600;7.310;2023-06-14T06:42:31;25.40;62.10
14053;DHT22;7101;51.600;7.310;2023-06-14T06:44:59;25.50;61.90
14053;DHT22;7101;51.600;7.310;2023-06-14T06:47:28;25.40;62.90
14053;DHT22;7101;51.600;7.310;2023-06-14T06:49:57;25.90;62.50
14053;DHT22;7101;51.600;7.310;2023-06-14T06:52:24;26.30;66.20
14053;DHT22;7101;51.600;7.310;2023-06-14T06:54:51;26.60;59.90
14053;DHT22;7101;51.600;7.310;2023-06-14T06:57:20;26.60;60.60
14053;DHT22;7101;51.600;7.310;2023-06-14T06:59:54;26.50;59.80
14053;DHT22;7101;51.600;7.310;2023-06-14T07:02:21;26.50;59.80
14053;DHT22;7101;51.600;7.310;2023-06-14T07:04:50;25.70;60.30
14053;DHT22;7101;51.600;7.310;2023-06-14T07:07:19;25.90;61.00
14053;DHT22;7101;51.600;7.310;2023-06-14T07:09:48;26.50;59.30
14053;DHT22;7101;51.600;7.310;2023-06-14T07:12:16;26.50;59.70
14053;DHT22;7101;51.600;7.310;2023-06-14T07:14:43;26.50;59.80
14053;DHT22;7101;51.600;7.310;2023-06-14T07:17:10;26.20;60.40
14053;DHT22;7101;51.600;7.310;2023-06-14T07:19:37;25.70;59.10
14053;DHT22;7101;51.600;7.310;2023-06-14T07:22:04;25.40;60.80
14053;DHT22;7101;51.600;7.310;2023-06-14T07:24:33;25.80;59.80
14053;DHT22;7101;51.600;7.310;2023-06-14T07:27:01;26.20;60.60
14053;DHT22;7101;51.600;7.310;2023-06-14T07:29:29;26.50;61.50
14053;DHT22;7101;51.600;7.310;2023-06-14T07:31:57;26.30;59.20
14053;DHT22;7101;51.600;7.310;2023-06-14T07:34:24;26.80;59.50
14053;DHT22;7101;51.600;7.310;2023-06-14T07:36:51;26.80;60.90
14053;DHT22;7101;51.600;7.310;2023-06-14T07:39:19;27.50;59.60
14053;DHT22;7101;51.600;7.310;2023-06-14T07:41:47;27.40;58.10
14053;DHT22;7101;51.600;7.310;2023-06-14T07:44:14;27.30;58.30
14053;DHT22;7101;51.600;7.310;2023-06-14T07:46:42;27.10;59.00
14053;DHT22;7101;51.600;7.310;2023-06-14T07:49:08;27.60;58.90
14053;DHT22;7101;51.600;7.310;2023-06-14T07:51:35;27.00;57.90
14053;DHT22;7101;51.600;7.310;2023-06-14T07:54:03;25.70;59.10
14053;DHT22;7101;51.600;7.310;2023-06-14T07:56:32;25.70;58.90
14053;DHT22;7101;51.600;7.310;2023-06-14T07:59:01;25.50;59.60
14053;DHT22;7101;51.600;7.310;2023-06-14T08:01:32;26.20;59.20
14053;DHT22;7101;51.600;7.310;2023-06-14T08:03:58;25.90;58.00
14053;DHT22;7101;51.600;7.310;2023-06-14T08:06:26;25.30;55.70
14053;DHT22;7101;51.600;7.310;2023-06-14T08:08:52;24.90;56.70
14053;DHT22;7101;51.600;7.310;2023-06-14T08:11:19;24.90;58.00
14053;DHT22;7101;51.600;7.310;2023-06-14T08:13:46;24.90;57.90
14053;DHT22;7101;51.600;7.310;2023-06-14T08:16:14;25.50;56.30
14053;DHT22;7101;51.600;7.310;2023-06-14T08:18:41;25.80;57.90
14053;DHT22;7101;51.600;7.310;2023-06-14T08:21:08;26.30;58.30
14053;DHT22;7101;51.600;7.310;2023-06-14T08:23:35;26.40;55.60
14053;DHT22;7101;51.600;7.310;2023-06-14T08:26:02;26.20;55.40
14053;DHT22;7101;51.600;7.310;2023-06-14T08:28:29;26.50;56.60
14053;DHT22;7101;51.600;7.310;2023-06-14T08:30:57;26.30;55.40
14053;DHT22;7101;51.600;7.310;2023-06-14T08:33:25;26.30;55.70
14053;DHT22;7101;51.600;7.310;2023-06-14T08:35:52;25.90;56.00
14053;DHT22;7101;51.600;7.310;2023-06-14T08:38:19;25.50;56.80
14053;DHT22;7101;51.600;7.310;2023-06-14T08:40:48;25.40;56.70
14053;DHT22;7101;51.600;7.310;2023-06-14T08:43:17;25.30;56.00
14053;DHT22;7101;51.600;7.310;2023-06-14T08:45:46;25.10;55.50
14053;DHT22;7101;51.600;7.310;2023-06-14T08:48:16;25.00;55.30
14053;DHT22;7101;51.600;7.310;2023-06-14T08:50:47;24.80;57.80
14053;DHT22;7101;51.600;7.310;2023-06-14T08:53:19;24.90;57.70
14053;DHT22;7101;51.600;7.310;2023-06-14T08:55:46;25.10;55.50
14053;DHT22;7101;51.600;7.310;2023-06-14T08:58:14;25.00;57.10
14053;DHT22;7101;51.600;7.310;2023-06-14T09:00:41;25.30;56.00
14053;DHT22;7101;51.600;7.310;2023-06-14T09:03:09;25.20;57.00
14053;DHT22;7101;51.600;7.310;2023-06-14T09:05:39;24.90;57.10
14053;DHT22;7101;51.600;7.310;2023-06-14T09:08:07;25.00;55.40
14053;DHT22;7101;51.600;7.310;2023-06-14T09:10:34;25.10;57.50
14053;DHT22;7101;51.600;7.310;2023-06-14T09:13:03;25.00;57.90
14053;DHT22;7101;51.600;7.310;2023-06-14T09:15:30;24.80;55.90
14053;DHT22;7101;51.600;7.310;2023-06-14T09:17:57;24.10;56.90
14053;DHT22;7101;51.600;7.310;2023-06-14T09:20:28;24.00;57.90
14053;DHT22;7101;51.600;7.310;2023-06-14T09:22:57;24.10;59.10
14053;DHT22;7101;51.600;7.310;2023-06-14T09:25:25;24.10;57.30
14053;DHT22;7101;51.600;7.310;2023-06-14T09:27:52;24.50;58.60
14053;DHT22;7101;51.600;7.310;2023-06-14T09:30:20;24.20;56.70
14053;DHT22;7101;51.600;7.310;2023-06-14T09:32:47;23.90;57.70
14053;DHT22;7101;51.600;7.310;2023-06-14T09:35:18;24.10;55.90
14053;DHT22;7101;51.600;7.310;2023-06-14T09:37:45;24.20;58.30
14053;DHT22;7101;51.600;7.310;2023-06-14T09:40:13;24.10;57.90
14053;DHT22;7101;51.600;7.310;2023-06-14T09:42:48;24.20;58.20
14053;DHT22;7101;51.600;7.310;2023-06-14T09:45:15;24.00;61.00
14053;DHT22;7101;51.600;7.310;2023-06-14T09:47:48;24.00;59.80
14053;DHT22;7101;51.600;7.310;2023-06-14T09:50:15;24.30;59.20
14053;DHT22;7101;51.600;7.310;2023-06-14T09:52:43;24.40;58.90
14053;DHT22;7101;51.600;7.310;2023-06-14T09:55:12;24.00;59.90
14053;DHT22;7101;51.600;7.310;2023-06-14T09:57:41;23.80;59.40
14053;DHT22;7101;51.600;7.310;2023-06-14T10:00:15;23.70;60.30
14053;DHT22;7101;51.600;7.310;2023-06-14T10:02:47;23.70;60.80
14053;DHT22;7101;51.600;7.310;2023-06-14T10:05:17;24.00;62.00
14053;DHT22;7101;51.600;7.310;2023-06-14T10:07:53;24.10;61.80
14053;DHT22;7101;51.600;7.310;2023-06-14T10:10:20;24.50;59.20
14053;DHT22;7101;51.600;7.310;2023-06-14T10:12:47;24.70;61.80
14053;DHT22;7101;51.600;7.310;2023-06-14T10:15:18;24.70;61.10
14053;DHT22;7101;51.600;7.310;2023-06-14T10:17:49;24.90;58.00
14053;DHT22;7101;51.600;7.310;2023-06-14T10:20:29;24.40;58.00
14053;DHT22;7101;51.600;7.310;2023-06-14T10:23:03;24.20;59.00
14053;DHT22;7101;51.600;7.310;2023-06-14T10:25:31;24.10;58.90
14053;DHT22;7101;51.600;7.310;2023-06-14T10:28:15;24.20;60.80
14053;DHT22;7101;51.600;7.310;2023-06-14T10:31:06;24.00;58.80
14053;DHT22;7101;51.600;7.310;2023-06-14T10:33:34;23.80;60.90
14053;DHT22;7101;51.600;7.310;2023-06-14T10:36:09;23.50;60.20
14053;DHT22;7101;51.600;7.310;2023-06-14T10:38:36;23.80;61.20
14053;DHT22;7101;51.600;7.310;2023-06-14T10:41:05;24.00;59.30
14053;DHT22;7101;51.600;7.310;2023-06-14T10:43:33;24.10;62.00
14053;DHT22;7101;51.600;7.310;2023-06-14T10:46:17;24.40;63.20
14053;DHT22;7101;51.600;7.310;2023-06-14T10:48:48;24.20;59.40
14053;DHT22;7101;51.600;7.310;2023-06-14T10:51:16;24.20;61.60
14053;DHT22;7101;51.600;7.310;2023-06-14T10:53:46;23.80;61.50
14053;DHT22;7101;51.600;7.310;2023-06-14T10:56:23;23.50;63.60
14053;DHT22;7101;51.600;7.310;2023-06-14T10:58:52;23.60;63.10
14053;DHT22;7101;51.600;7.310;2023-06-14T11:01:33;23.60;62.60
14053;DHT22;7101;51.600;7.310;2023-06-14T11:04:11;23.60;62.30
14053;DHT22;7101;51.600;7.310;2023-06-14T11:06:46;23.40;62.30
14053;DHT22;7101;51.600;7.310;2023-06-14T11:09:49;23.70;66.20
14053;DHT22;7101;51.600;7.310;2023-06-14T11:12:21;23.60;63.40
14053;DHT22;7101;51.600;7.310;2023-06-14T11:14:48;23.80;62.60
14053;DHT22;7101;51.600;7.310;2023-06-14T11:17:16;23.50;60.70
14053;DHT22;7101;51.600;7.310;2023-06-14T11:19:44;23.40;61.30
14053;DHT22;7101;51.600;7.310;2023-06-14T11:22:11;23.40;64.80
14053;DHT22;7101;51.600;7.310;2023-06-14T11:24:40;23.20;65.00
14053;DHT22;7101;51.600;7.310;2023-06-14T11:27:09;23.30;65.40
14053;DHT22;7101;51.600;7.310;2023-06-14T11:29:37;23.20;65.40
14053;DHT22;7101;51.600;7.310;2023-06-14T11:32:10;23.70;65.00
14053;DHT22;7101;51.600;7.310;2023-06-14T11:34:40;23.80;64.40
14053;DHT22;7101;51.600;7.310;2023-06-14T11:37:06;24.00;63.10
14053;DHT22;7101;51.600;7.310;2023-06-14T11:39:43;24.00;63.40
14053;DHT22;7101;51.600;7.310;2023-06-14T11:42:14;23.70;62.60
14053;DHT22;7101;51.600;7.310;2023-06-14T11:44:41;23.70;62.90
14053;DHT22;7101;51.600;7.310;2023-06-14T11:47:09;23.70;65.90
14053;DHT22;7101;51.600;7.310;2023-06-14T11:49:37;23.70;65.10
14053;DHT22;7101;51.600;7.310;2023-06-14T11:52:06;23.90;63.90
14053;DHT22;7101;51.600;7.310;2023-06-14T11:54:33;24.00;64.60
14053;DHT22;7101;51.600;7.310;2023-06-14T11:57:00;23.90;62.00
14053;DHT22;7101;51.600;7.310;2023-06-14T11:59:27;23.70;64.00
14053;DHT22;7101;51.600;7.310;2023-06-14T12:01:56;23.70;62.80
14053;DHT22;7101;51.600;7.310;2023-06-14T12:04:27;23.80;62.70
14053;DHT22;7101;51.600;7.310;2023-06-14T12:07:13;23.80;63.60
14053;DHT22;7101;51.600;7.310;2023-06-14T12:10:04;24.00;63.30
14053;DHT22;7101;51.600;7.310;2023-06-14T12:12:35;24.40;64.70
14053;DHT22;7101;51.600;7.310;2023-06-14T12:15:03;24.00;63.20
14053;DHT22;7101;51.600;7.310;2023-06-14T12:17:32;23.60;64.10
14053;DHT22;7101;51.600;7.310;2023-06-14T12:20:05;23.70;62.30
14053;DHT22;7101;51.600;7.310;2023-06-14T12:22:37;23.80;62.50
14053;DHT22;7101;51.600;7.310;2023-06-14T12:25:04;23.80;62.10
14053;DHT22;7101;51.600;7.310;2023-06-14T12:27:31;23.60;62.90
14053;DHT22;7101;51.600;7.310;2023-06-14T12:30:02;23.50;62.10
14053;DHT22;7101;51.600;7.310;2023-06-14T12:32:32;23.70;62.40
14053;DHT22;7101;51.600;7.310;2023-06-14T12:34:59;23.60;64.50
14053;DHT22;7101;51.600;7.310;2023-06-14T12:37:26;23.80;62.50
14053;DHT22;7101;51.600;7.310;2023-06-14T12:39:54;23.80;63.60
14053;DHT22;7101;51.600;7.310;2023-06-14T12:42:21;23.90;65.10
14053;DHT22;7101;51.600;7.310;2023-06-14T12:44:48;24.10;67.30
14053;DHT22;7101;51.600;7.310;2023-06-14T12:47:14;24.40;62.60
14053;DHT22;7101;51.600;7.310;2023-06-14T12:49:41;24.50;63.00
14053;DHT22;7101;51.600;7.310;2023-06-14T12:52:09;24.50;63.00
14053;DHT22;7101;51.600;7.310;2023-06-14T12:54:35;24.30;63.80
14053;DHT22;7101;51.600;7.310;2023-06-14T12:57:06;24.10;63.80
14053;DHT22;7101;51.600;7.310;2023-06-14T12:59:35;23.80;63.40
14053;DHT22;7101;51.600;7.310;2023-06-14T13:02:13;23.70;63.80
14053;DHT22;7101;51.600;7.310;2023-06-14T13:04:40;23.80;62.30
14053;DHT22;7101;51.600;7.310;2023-06-14T13:07:07;24.00;63.70
14053;DHT22;7101;51.600;7.310;2023-06-14T13:09:34;24.00;62.50
14053;DHT22;7101;51.600;7.310;2023-06-14T13:12:02;23.80;62.00
14053;DHT22;7101;51.600;7.310;2023-06-14T13:14:30;24.00;63.90
14053;DHT22;7101;51.600;7.310;2023-06-14T13:16:58;24.20;62.50
14053;DHT22;7101;51.600;7.310;2023-06-14T13:19:25;24.20;67.40
14053;DHT22;7101;51.600;7.310;2023-06-14T13:21:51;24.40;63.50
14053;DHT22;7101;51.600;7.310;2023-06-14T13:24:18;24.40;62.60
14053;DHT22;7101;51.600;7.310;2023-06-14T13:26:45;24.30;64.40
14053;DHT22;7101;51.600;7.310;2023-06-14T13:29:12;24.20;63.10
14053;DHT22;7101;51.600;7.310;2023-06-14T13:31:41;24.20;61.70
14053;DHT22;7101;51.600;7.310;2023-06-14T13:34:09;24.20;64.00
14053;DHT22;7101;51.600;7.310;2023-06-14T13:36:36;24.20;60.80
14053;DHT22;7101;51.600;7.310;2023-06-14T13:39:03;24.20;59.80
14053;DHT22;7101;51.600;7.310;2023-06-14T13:41:29;24.20;60.40
14053;DHT22;7101;51.600;7.310;2023-06-14T13:43:59;24.30;64.60
14053;DHT22;7101;51.600;7.310;2023-06-14T13:46:26;24.20;62.50
14053;DHT22;7101;51.600;7.310;2023-06-14T13:48:54;24.30;62.50
14053;DHT22;7101;51.600;7.310;2023-06-14T13:51:21;24.20;61.40
14053;DHT22;7101;51.600;7.310;2023-06-14T13:53:48;24.20;62.60
14053;DHT22;7101;51.600;7.310;2023-06-14T13:56:16;24.40;62.50
14053;DHT22;7101;51.600;7.310;2023-06-14T13:58:43;24.20;61.00
14053;DHT22;7101;51.600;7.310;2023-06-14T14:01:10;24.20;62.00
14053;DHT22;7101;51.600;7.310;2023-06-14T14:03:39;24.30;63.40
14053;DHT22;7101;51.600;7.310;2023-06-14T14:06:07;24.10;60.80
14053;DHT22;7101;51.600;7.310;2023-06-14T14:08:35;24.20;62.00
14053;DHT22;7101;51.600;7.310;2023-06-14T14:11:02;24.40;61.50
14053;DHT22;7101;51.600;7.310;2023-06-14T14:13:29;24.60;62.20
14053;DHT22;7101;51.600;7.310;2023-06-14T14:15:56;24.60;57.90
14053;DHT22;7101;51.600;7.310;2023-06-14T14:18:23;24.50;59.30
14053;DHT22;7101;51.600;7.310;2023-06-14T14:20:50;24.70;59.30
14053;DHT22;7101;51.600;7.310;2023-06-14T14:23:18;24.70;60.50
14053;DHT22;7101;51.600;7.310;2023-06-14T14:25:45;24.90;59.00
14053;DHT22;7101;51.600;7.310;2023-06-14T14:28:13;24.60;58.50
14053;DHT22;7101;51.600;7.310;2023-06-14T14:30:41;24.60;59.70
14053;DHT22;7101;51.600;7.310;2023-06-14T14:33:09;24.50;57.70
14053;DHT22;7101;51.600;7.310;2023-06-14T14:35:41;24.50;59.60
14053;DHT22;7101;51.600;7.310;2023-06-14T14:38:08;24.70;61.10
14053;DHT22;7101;51.600;7.310;2023-06-14T14:40:36;24.60;57.50
14053;DHT22;7101;51.600;7.310;2023-06-14T14:43:04;24.80;57.50
14053;DHT22;7101;51.600;7.310;2023-06-14T14:45:31;24.90;57.50
14053;DHT22;7101;51.600;7.310;2023-06-14T14:48:00;24.80;58.70
14053;DHT22;7101;51.600;7.310;2023-06-14T14:50:29;24.70;58.20
14053;DHT22;7101;51.600;7.310;2023-06-14T14:52:57;24.90;59.80
14053;DHT22;7101;51.600;7.310;2023-06-14T14:55:24;24.80;57.80
14053;DHT22;7101;51.600;7.310;2023-06-14T14:57:52;24.70;58.30
14053;DHT22;7101;51.600;7.310;2023-06-14T15:00:19;24.50;58.60
14053;DHT22;7101;51.600;7.310;2023-06-14T15:02:47;24.40;58.70
14053;DHT22;7101;51.600;7.310;2023-06-14T15:05:20;24.50;57.50
14053;DHT22;7101;51.600;7.310;2023-06-14T15:07:47;24.80;60.10
14053;DHT22;7101;51.600;7.310;2023-06-14T15:10:14;25.00;58.60
14053;DHT22;7101;51.600;7.310;2023-06-14T15:12:41;25.10;58.40
14053;DHT22;7101;51.600;7.310;2023-06-14T15:15:11;24.80;56.90
14053;DHT22;7101;51.600;7.310;2023-06-14T15:17:40;24.70;56.70
14053;DHT22;7101;51.600;7.310;2023-06-14T15:20:07;24.90;57.70
14053;DHT22;7101;51.600;7.310;2023-06-14T15:22:38;24.90;56.60
14053;DHT22;7101;51.600;7.310;2023-06-14T15:25:05;24.70;56.10
14053;DHT22;7101;51.600;7.310;2023-06-14T15:27:32;24.60;58.10
14053;DHT22;7101;51.600;7.310;2023-06-14T15:30:03;24.60;57.10
14053;DHT22;7101;51.600;7.310;2023-06-14T15:32:31;24.50;57.70
14053;DHT22;7101;51.600;7.310;2023-06-14T15:34:59;24.40;57.90
14053;DHT22;7101;51.600;7.310;2023-06-14T15:37:26;24.60;59.20
14053;DHT22;7101;51.600;7.310;2023-06-14T15:39:55;24.90;58.40
14053;DHT22;7101;51.600;7.310;2023-06-14T15:42:22;24.90;55.70
14053;DHT22;7101;51.600;7.310;2023-06-14T15:44:49;25.00;56.30
14053;DHT22;7101;51.600;7.310;2023-06-14T15:47:15;24.90;58.10
14053;DHT22;7101;51.600;7.310;2023-06-14T15:49:44;24.90;57.20
14053;DHT22;7101;51.600;7.310;2023-06-14T15:52:10;24.90;57.20
14053;DHT22;7101;51.600;7.310;2023-06-14T15:54:38;24.70;56.50